Time;durP1;ratioP1;P1;durP2;ratioP2;P2;SDS_P1;SDS_P2;PMS_P1;PMS_P2;Temp;Humidity;BMP_temperature;BMP_pressure;BME280_temperature;BME280_humidity;BME280_pressure;Samples;Min_cycle;Max_cycle;Signal;HPM_P1;HPM_P2
2022/09/28 00:01:14;;;;;;;;;;;;;;;-145.50;100.00;65435.88;5022212;28;20447;-62
2022/09/28 00:03:40;;;;;;;;;;;;;;;-145.50;100.00;65435.88;5024508;28;20002;-62
2022/09/28 00:06:07;;;;;;;;;;;;;;;-145.50;100.00;65435.88;5022206;28;19971;-62
2022/09/28 00:08:34;;;;;;;;;;;;;;;-145.50;100.00;65435.88;5026963;28;19921;-62
2022/09/28 00:11:01;;;;;;;;;;;;;;;-145.50;100.00;65435.88;5020444;28;20500;-63
2022/09/28 00:13:28;;;;;;;;;;;;;;;-145.50;100.00;65435.88;5016307;28;19925;-63
2022/09/28 00:16:01;;;;;;;;;;;;;;;-145.50;100.00;65435.88;5023685;28;19929;-61
2022/09/28 00:18:28;;;;;;;;;;;;;;;-145.50;100.00;65435.88;5015855;28;20361;-64
2022/09/28 00:21:01;;;;;;;;;;;;;;;-145.50;100.00;65435.88;5029818;28;19968;-62
2022/09/28 00:23:27;;;;;;;;;;;;;;;-145.50;100.00;65435.88;5020763;28;19979;-62
2022/09/28 00:25:53;;;;;;;;;;;;;;;-145.50;100.00;65435.88;5026302;28;19925;-62
2022/09/28 00:28:19;;;;;;;;;;;;;;;-145.50;100.00;65435.88;5025287;28;19925;-63
2022/09/28 00:30:46;;;;;;;;;;;;;;;-145.50;100.00;65435.88;5017603;28;19924;-62
2022/09/28 00:33:12;;;;;;;;;;;;;;;-145.50;100.00;65435.88;5027665;28;19964;-63
2022/09/28 00:35:38;;;;;;;;;;;;;;;-145.50;100.00;65435.88;5022367;28;20515;-61
2022/09/28 00:38:08;;;;;;;;;;;;;;;-145.50;100.00;65435.88;5040761;28;19920;-63
2022/09/28 00:40:34;;;;;;;;;;;;;;;-145.50;100.00;65435.88;5008822;28;19971;-64
2022/09/28 00:43:15;;;;;;;;;;;;;;;-145.50;100.00;65435.88;5029032;28;19947;-63
2022/09/28 00:45:41;;;;;;;;;;;;;;;-145.50;100.00;65435.88;5023575;28;19925;-64
2022/09/28 00:48:08;;;;;;;;;;;;;;;-145.50;100.00;65435.88;5026635;28;19921;-64
2022/09/28 00:50:36;;;;;;;;;;;;;;;-145.50;100.00;65435.88;5025373;28;19921;-63
2022/09/28 00:53:16;;;;;;;;;;;;;;;-145.50;100.00;65435.88;5019047;28;19974;-63
2022/09/28 00:55:47;;;;;;;;;;;;;;;-145.50;100.00;65435.88;5021355;28;19921;-65
2022/09/28 00:58:17;;;;;;;;;;;;;;;-145.50;100.00;65435.88;5023275;28;20569;-63
2022/09/28 01:00:43;;;;;;;;;;;;;;;-145.50;100.00;65435.88;5024949;28;20018;-64
2022/09/28 01:03:09;;;;;;;;;;;;;;;-145.50;100.00;65435.88;5014387;28;19926;-63
2022/09/28 01:05:38;;;;;;;;;;;;;;;-145.50;100.00;65435.88;5027671;28;19925;-64
2022/09/28 01:08:06;;;;;;;;;;;;;;;-145.50;100.00;65435.88;5016571;28;19925;-63
2022/09/28 01:10:32;;;;;;;;;;;;;;;-145.50;100.00;65435.88;5018474;28;19926;-64
2022/09/28 01:12:58;;;;;;;;;;;;;;;-145.50;100.00;65435.88;5027946;28;19983;-63
2022/09/28 01:15:26;;;;;;;;;;;;;;;-145.50;100.00;65435.88;5015772;28;19921;-63
2022/09/28 01:17:59;;;;;;;;;;;;;;;-145.50;100.00;65435.88;5029308;28;20064;-62
2022/09/28 01:20:33;;;;;;;;;;;;;;;-145.50;100.00;65435.88;5016934;28;19921;-63
2022/09/28 01:22:59;;;;;;;;;;;;;;;-145.50;100.00;65435.88;5027580;28;20419;-63
2022/09/28 01:25:49;;;;;;;;;;;;;;;-145.50;100.00;65435.88;5025241;28;20377;-61
2022/09/28 01:28:20;;;;;;;;;;;;;;;-145.50;100.00;65435.88;5026616;28;19929;-62
2022/09/28 01:31:06;;;;;;;;;;;;;;;-145.50;100.00;65435.88;5022343;28;19971;-64
2022/09/28 01:33:37;;;;;;;;;;;;;;;-145.50;100.00;65435.88;5018929;28;19929;-63
2022/09/28 01:36:23;;;;;;;;;;;;;;;-145.50;100.00;65435.88;5023678;28;19936;-64
2022/09/28 01:38:54;;;;;;;;;;;;;;;-145.50;100.00;65435.88;5018044;28;19921;-63
2022/09/28 01:41:22;;;;;;;;;;;;;;;-145.50;100.00;65435.88;5028633;28;19991;-63
2022/09/28 01:43:52;;;;;;;;;;;;;;;-145.50;100.00;65435.88;5020659;28;20431;-63
2022/09/28 01:46:20;;;;;;;;;;;;;;;-145.50;100.00;65435.88;5018852;28;19925;-64
2022/09/28 01:48:50;;;;;;;;;;;;;;;-145.50;100.00;65435.88;5009458;28;19925;-63
2022/09/28 01:51:36;;;;;;;;;;;;;;;-145.50;100.00;65435.88;5018151;28;19921;-64
2022/09/28 01:54:10;;;;;;;;;;;;;;;-145.50;100.00;65435.88;5020942;28;19925;-64
2022/09/28 01:56:39;;;;;;;;;;;;;;;-145.50;100.00;65435.88;5022910;28;19925;-63
2022/09/28 01:59:19;;;;;;;;;;;;;;;-145.50;100.00;65435.88;5018269;28;20410;-64
2022/09/28 02:01:57;;;;;;;;;;;;;;;-145.50;100.00;65435.88;5015038;28;20306;-63
2022/09/28 02:04:27;;;;;;;;;;;;;;;-145.50;100.00;65435.88;5009569;28;19967;-63
2022/09/28 02:07:16;;;;;;;;;;;;;;;-145.50;100.00;65435.88;5013861;28;20325;-63
2022/09/28 02:10:03;;;;;;;;;;;;;;;-145.50;100.00;65435.88;5008430;28;19936;-64
2022/09/28 02:12:32;;;;;;;;;;;;;;;-145.50;100.00;65435.88;5022455;28;20387;-63
2022/09/28 02:15:05;;;;;;;;;;;;;;;-145.50;100.00;65435.88;5024101;28;19921;-63
2022/09/28 02:17:31;;;;;;;;;;;;;;;-145.50;100.00;65435.88;5011024;28;20448;-64
2022/09/28 02:19:58;;;;;;;;;;;;;;;-145.50;100.00;65435.88;5027266;28;19921;-63
2022/09/28 02:22:28;;;;;;;;;;;;;;;-145.50;100.00;65435.88;5025097;28;19968;-62
2022/09/28 02:25:01;;;;;;;;;;;;;;;-145.50;100.00;65435.88;5024975;28;19924;-63
2022/09/28 02:27:44;;;;;;;;;;;;;;;-145.50;100.00;65435.88;5024850;28;19926;-63
2022/09/28 02:30:10;;;;;;;;;;;;;;;-145.50;100.00;65435.88;5010830;28;19995;-63
2022/09/28 02:32:39;;;;;;;;;;;;;;;-145.50;100.00;65435.88;5018747;28;19956;-64
2022/09/28 02:35:10;;;;;;;;;;;;;;;-145.50;100.00;65435.88;5017318;28;19922;-64
2022/09/28 02:37:37;;;;;;;;;;;;;;;-145.50;100.00;65435.88;5024552;28;19921;-63
2022/09/28 02:40:10;;;;;;;;;;;;;;;-145.50;100.00;65435.88;5020950;28;19921;-63
2022/09/28 02:42:50;;;;;;;;;;;;;;;-145.50;100.00;65435.88;5026849;28;19924;-63
2022/09/28 02:45:32;;;;;;;;;;;;;;;-145.50;100.00;65435.88;5027595;28;19933;-64
2022/09/28 02:48:04;;;;;;;;;;;;;;;-145.50;100.00;65435.88;5026042;28;19928;-64
2022/09/28 02:50:49;;;;;;;;;;;;;;;-145.50;100.00;65435.88;5019163;28;19925;-63
2022/09/28 02:53:26;;;;;;;;;;;;;;;-145.50;100.00;65435.88;5020648;28;19925;-63
2022/09/28 02:55:52;;;;;;;;;;;;;;;-145.50;100.00;65435.88;5020406;28;19965;-65
2022/09/28 02:58:30;;;;;;;;;;;;;;;-145.50;100.00;65435.88;5014701;28;20431;-63
2022/09/28 03:01:09;;;;;;;;;;;;;;;-145.50;100.00;65435.88;5022149;28;19921;-64
2022/09/28 03:03:47;;;;;;;;;;;;;;;-145.50;100.00;65435.88;5020273;28;20332;-64
2022/09/28 03:06:18;;;;;;;;;;;;;;;-145.50;100.00;65435.88;5021337;28;20286;-65
2022/09/28 03:08:53;;;;;;;;;;;;;;;-145.50;100.00;65435.88;5011890;28;19929;-64
2022/09/28 03:11:23;;;;;;;;;;;;;;;-145.50;100.00;65435.88;5008533;28;19925;-64
2022/09/28 03:13:50;;;;;;;;;;;;;;;-145.50;100.00;65435.88;5022139;28;20377;-64
2022/09/28 03:16:17;;;;;;;;;;;;;;;-145.50;100.00;65435.88;5019984;28;19928;-64
2022/09/28 03:18:44;;;;;;;;;;;;;;;-145.50;100.00;65435.88;5027219;28;19975;-62
2022/09/28 03:21:11;;;;;;;;;;;;;;;-145.50;100.00;65435.88;5020302;28;19992;-62
2022/09/28 03:23:38;;;;;;;;;;;;;;;-145.50;100.00;65435.88;5027588;28;19925;-63
2022/09/28 03:26:06;;;;;;;;;;;;;;;-145.50;100.00;65435.88;5010559;28;19922;-64
2022/09/28 03:28:33;;;;;;;;;;;;;;;-145.50;100.00;65435.88;5022461;28;19925;-65
2022/09/28 03:30:59;;;;;;;;;;;;;;;-145.50;100.00;65435.88;5022657;28;20789;-64
2022/09/28 03:33:26;;;;;;;;;;;;;;;-145.50;100.00;65435.88;5016297;28;19983;-64
2022/09/28 03:35:52;;;;;;;;;;;;;;;-145.50;100.00;65435.88;5020638;28;19940;-64
2022/09/28 03:38:19;;;;;;;;;;;;;;;-145.50;100.00;65435.88;5008946;28;19921;-64
2022/09/28 03:40:55;;;;;;;;;;;;;;;-145.50;100.00;65435.88;5020543;28;19971;-64
2022/09/28 03:43:21;;;;;;;;;;;;;;;-145.50;100.00;65435.88;5013113;28;19980;-64
2022/09/28 03:45:52;;;;;;;;;;;;;;;-145.50;100.00;65435.88;5027860;28;19925;-64
2022/09/28 03:48:26;;;;;;;;;;;;;;;-145.50;100.00;65435.88;5018007;28;19925;-64
2022/09/28 03:50:58;;;;;;;;;;;;;;;-145.50;100.00;65435.88;5026766;28;19929;-63
2022/09/28 03:53:25;;;;;;;;;;;;;;;-145.50;100.00;65435.88;5020757;28;20355;-63
2022/09/28 03:55:54;;;;;;;;;;;;;;;-145.50;100.00;65435.88;5010525;28;19965;-64
2022/09/28 03:58:21;;;;;;;;;;;;;;;-145.50;100.00;65435.88;5025038;28;19983;-64
2022/09/28 04:00:48;;;;;;;;;;;;;;;-145.50;100.00;65435.88;5020789;28;19928;-63
2022/09/28 04:03:15;;;;;;;;;;;;;;;-145.50;100.00;65435.88;5029069;28;20012;-63
2022/09/28 04:05:51;;;;;;;;;;;;;;;-145.50;100.00;65435.88;5025905;28;19925;-63
2022/09/28 04:08:18;;;;;;;;;;;;;;;-145.50;100.00;65435.88;5014980;28;19924;-64
2022/09/28 04:10:45;;;;;;;;;;;;;;;-145.50;100.00;65435.88;5023036;28;19967;-63
2022/09/28 04:13:11;;;;;;;;;;;;;;;-145.50;100.00;65435.88;5015449;28;19921;-64
2022/09/28 04:15:37;;;;;;;;;;;;;;;-145.50;100.00;65435.88;5027381;28;19947;-64
2022/09/28 04:18:08;;;;;;;;;;;;;;;-145.50;100.00;65435.88;5007690;28;19929;-64
2022/09/28 04:20:34;;;;;;;;;;;;;;;-145.50;100.00;65435.88;5021171;28;19929;-64
2022/09/28 04:23:00;;;;;;;;;;;;;;;-145.50;100.00;65435.88;5013781;28;20370;-63
2022/09/28 04:25:27;;;;;;;;;;;;;;;-145.50;100.00;65435.88;5028622;28;19975;-64
2022/09/28 04:30:38;;;;;;;;;;;;;;;-145.50;100.00;65435.88;5020240;28;19924;-64
2022/09/28 04:33:04;;;;;;;;;;;;;;;-145.50;100.00;65435.88;5023176;28;19987;-64
2022/09/28 04:35:30;;;;;;;;;;;;;;;-145.50;100.00;65435.88;5018926;28;20369;-64
2022/09/28 04:37:57;;;;;;;;;;;;;;;-145.50;100.00;65435.88;5015696;28;20021;-63
2022/09/28 04:40:23;;;;;;;;;;;;;;;-145.50;100.00;65435.88;5018414;28;20026;-65
2022/09/28 04:42:53;;;;;;;;;;;;;;;-145.50;100.00;65435.88;5027484;28;20608;-64
2022/09/28 04:45:20;;;;;;;;;;;;;;;-145.50;100.00;65435.88;5015327;28;19925;-64
2022/09/28 04:47:47;;;;;;;;;;;;;;;-145.50;100.00;65435.88;5027354;28;19921;-65
2022/09/28 04:50:13;;;;;;;;;;;;;;;-145.50;100.00;65435.88;5024365;28;19925;-64
2022/09/28 04:52:40;;;;;;;;;;;;;;;-145.50;100.00;65435.88;5016544;28;19925;-64
2022/09/28 04:55:06;;;;;;;;;;;;;;;-145.50;100.00;65435.88;5020421;28;19921;-65
2022/09/28 04:57:35;;;;;;;;;;;;;;;-145.50;100.00;65435.88;5021514;28;19974;-63
2022/09/28 05:00:02;;;;;;;;;;;;;;;-145.50;100.00;65435.88;5033767;28;19928;-64
2022/09/28 05:02:29;;;;;;;;;;;;;;;-145.50;100.00;65435.88;5014246;28;19925;-64
2022/09/28 05:04:57;;;;;;;;;;;;;;;-145.50;100.00;65435.88;5001865;28;20341;-64
2022/09/28 05:07:24;;;;;;;;;;;;;;;-145.50;100.00;65435.88;5021952;28;19937;-64
2022/09/28 05:09:50;;;;;;;;;;;;;;;-145.50;100.00;65435.88;5016692;28;20377;-63
2022/09/28 05:12:16;;;;;;;;;;;;;;;-145.50;100.00;65435.88;5023609;28;19925;-63
2022/09/28 05:14:43;;;;;;;;;;;;;;;-145.50;100.00;65435.88;5022317;28;20507;-65
2022/09/28 05:17:09;;;;;;;;;;;;;;;-145.50;100.00;65435.88;5021818;28;19932;-63
2022/09/28 05:19:36;;;;;;;;;;;;;;;-145.50;100.00;65435.88;5018489;28;19975;-64
2022/09/28 05:22:03;;;;;;;;;;;;;;;-145.50;100.00;65435.88;5019448;28;19921;-64
2022/09/28 05:24:29;;;;;;;;;;;;;;;-145.50;100.00;65435.88;5028864;28;19925;-63
2022/09/28 05:26:56;;;;;;;;;;;;;;;-145.50;100.00;65435.88;5018913;28;19925;-64
2022/09/28 05:29:22;;;;;;;;;;;;;;;-145.50;100.00;65435.88;5028542;28;19951;-64
2022/09/28 05:31:48;;;;;;;;;;;;;;;-145.50;100.00;65435.88;5013860;28;19925;-63
2022/09/28 05:34:15;;;;;;;;;;;;;;;-145.50;100.00;65435.88;5029581;28;19928;-65
2022/09/28 05:36:41;;;;;;;;;;;;;;;-145.50;100.00;65435.88;5028789;28;19921;-63
2022/09/28 05:39:08;;;;;;;;;;;;;;;-145.50;100.00;65435.88;5021446;28;19931;-63
2022/09/28 05:41:34;;;;;;;;;;;;;;;-145.50;100.00;65435.88;5023875;28;19955;-63
2022/09/28 05:44:01;;;;;;;;;;;;;;;-145.50;100.00;65435.88;5013787;28;19925;-64
2022/09/28 05:46:27;;;;;;;;;;;;;;;-145.50;100.00;65435.88;5024776;28;19925;-63
2022/09/28 05:48:53;;;;;;;;;;;;;;;-145.50;100.00;65435.88;5016920;28;20445;-63
2022/09/28 05:51:20;;;;;;;;;;;;;;;-145.50;100.00;65435.88;5027962;28;20750;-63
2022/09/28 05:53:46;;;;;;;;;;;;;;;-145.50;100.00;65435.88;5026496;28;19928;-65
2022/09/28 05:56:12;;;;;;;;;;;;;;;-145.50;100.00;65435.88;5010372;28;19929;-63
2022/09/28 05:58:39;;;;;;;;;;;;;;;-145.50;100.00;65435.88;5025923;28;20605;-63
2022/09/28 06:01:05;;;;;;;;;;;;;;;-145.50;100.00;65435.88;5021827;28;19932;-62
2022/09/28 06:03:31;;;;;;;;;;;;;;;-145.50;100.00;65435.88;5019591;28;19921;-62
2022/09/28 06:05:59;;;;;;;;;;;;;;;-145.50;100.00;65435.88;5016446;28;19943;-63
2022/09/28 06:08:25;;;;;;;;;;;;;;;-145.50;100.00;65435.88;5022062;28;20328;-64
2022/09/28 06:10:51;;;;;;;;;;;;;;;-145.50;100.00;65435.88;5007154;28;20469;-64
2022/09/28 06:13:18;;;;;;;;;;;;;;;-145.50;100.00;65435.88;5020434;28;19921;-64
2022/09/28 06:15:45;;;;;;;;;;;;;;;-145.50;100.00;65435.88;5027144;28;19928;-64
2022/09/28 06:18:15;;;;;;;;;;;;;;;-145.50;100.00;65435.88;5018357;28;19929;-64
2022/09/28 06:20:42;;;;;;;;;;;;;;;-145.50;100.00;65435.88;5023299;28;19921;-62
2022/09/28 06:23:09;;;;;;;;;;;;;;;-145.50;100.00;65435.88;5016873;28;20047;-63
2022/09/28 06:25:36;;;;;;;;;;;;;;;-145.50;100.00;65435.88;5023211;28;19991;-64
2022/09/28 06:28:03;;;;;;;;;;;;;;;-145.50;100.00;65435.88;5027198;28;19933;-64
2022/09/28 06:30:31;;;;;;;;;;;;;;;-145.50;100.00;65435.88;5012232;28;20388;-63
2022/09/28 06:32:58;;;;;;;;;;;;;;;-145.50;100.00;65435.88;5019873;28;19925;-63
2022/09/28 06:35:26;;;;;;;;;;;;;;;-145.50;100.00;65435.88;5021274;28;20377;-64
2022/09/28 06:37:52;;;;;;;;;;;;;;;-145.50;100.00;65435.88;5020080;28;19929;-64
2022/09/28 06:40:19;;;;;;;;;;;;;;;-145.50;100.00;65435.88;5010124;28;19971;-64
2022/09/28 06:43:24;;;;;;;;;;;;;;;-145.50;100.00;65435.88;5025065;28;19921;-63
2022/09/28 06:45:51;;;;;;;;;;;;;;;-145.50;100.00;65435.88;4959269;28;19957;-64
2022/09/28 06:48:18;;;;;;;;;;;;;;;-145.50;100.00;65435.88;4965215;28;20124;-65
2022/09/28 06:50:45;;;;;;;;;;;;;;;-145.50;100.00;65435.88;4962079;28;19926;-64
2022/09/28 06:53:12;;;;;;;;;;;;;;;-145.50;100.00;65435.88;4955535;28;19925;-63
2022/09/28 06:55:40;;;;;;;;;;;;;;;-145.50;100.00;65435.88;4965396;28;20598;-63
2022/09/28 06:58:08;;;;;;;;;;;;;;;-145.50;100.00;65435.88;4959540;28;19973;-64
2022/09/28 07:00:35;;;;;;;;;;;;;;;-145.50;100.00;65435.88;4966272;28;19992;-63
2022/09/28 07:03:03;;;;;;;;;;;;;;;-145.50;100.00;65435.88;4958776;28;20414;-64
2022/09/28 07:05:33;;;;;;;;;;;;;;;-145.50;100.00;65435.88;4962218;28;19926;-64
2022/09/28 07:08:00;;;;;;;;;;;;;;;-145.50;100.00;65435.88;4963120;28;19922;-64
2022/09/28 07:10:27;;;;;;;;;;;;;;;-145.50;100.00;65435.88;4962361;28;20714;-64
2022/09/28 07:12:54;;;;;;;;;;;;;;;-145.50;100.00;65435.88;4966833;28;19922;-63
2022/09/28 07:15:20;;;;;;;;;;;;;;;-145.50;100.00;65435.88;4959760;28;20013;-64
2022/09/28 07:17:46;;;;;;;;;;;;;;;-145.50;100.00;65435.88;5012425;28;19976;-64
2022/09/28 07:20:27;;;;;;;;;;;;;;;-145.50;100.00;65435.88;5017033;28;19925;-64
2022/09/28 07:23:00;;;;;;;;;;;;;;;-145.50;100.00;65435.88;5032132;28;20612;-64
2022/09/28 07:25:46;;;;;;;;;;;;;;;-145.50;100.00;65435.88;5021413;28;19928;-64
2022/09/28 07:28:13;;;;;;;;;;;;;;;-145.50;100.00;65435.88;5024575;28;20007;-64
2022/09/28 07:30:39;;;;;;;;;;;;;;;-145.50;100.00;65435.88;5018802;28;19932;-65
2022/09/28 07:33:06;;;;;;;;;;;;;;;-145.50;100.00;65435.88;5018377;28;20015;-64
2022/09/28 07:35:35;;;;;;;;;;;;;;;-145.50;100.00;65435.88;5025073;28;19921;-65
2022/09/28 07:38:03;;;;;;;;;;;;;;;-145.50;100.00;65435.88;5018596;28;19921;-64
2022/09/28 07:43:19;;;;;;;;;;;;;;;-145.50;100.00;65435.88;5020858;28;19929;-64
2022/09/28 07:45:46;;;;;;;;;;;;;;;-145.50;100.00;65435.88;5023196;28;20353;-64
2022/09/28 07:48:16;;;;;;;;;;;;;;;-145.50;100.00;65435.88;5012095;28;19972;-63
2022/09/28 07:50:46;;;;;;;;;;;;;;;-145.50;100.00;65435.88;5037267;28;20385;-64
2022/09/28 07:53:12;;;;;;;;;;;;;;;-145.50;100.00;65435.88;5027050;28;19982;-64
2022/09/28 07:55:39;;;;;;;;;;;;;;;-145.50;100.00;65435.88;5019197;28;19921;-64
2022/09/28 07:58:05;;;;;;;;;;;;;;;-145.50;100.00;65435.88;5023888;28;19928;-63
2022/09/28 08:00:32;;;;;;;;;;;;;;;-145.50;100.00;65435.88;5018573;28;20694;-63
2022/09/28 08:03:00;;;;;;;;;;;;;;;-145.50;100.00;65435.88;5028336;28;19928;-65
2022/09/28 08:05:30;;;;;;;;;;;;;;;-145.50;100.00;65435.88;5023505;28;20051;-64
2022/09/28 08:07:58;;;;;;;;;;;;;;;-145.50;100.00;65435.88;5025104;28;20361;-64
2022/09/28 08:10:25;;;;;;;;;;;;;;;-145.50;100.00;65435.88;5030116;28;19925;-63
2022/09/28 08:12:55;;;;;;;;;;;;;;;-145.50;100.00;65435.88;5010851;28;19936;-63
2022/09/28 08:15:28;;;;;;;;;;;;;;;-145.50;100.00;65435.88;5020841;28;19929;-63
2022/09/28 08:17:54;;;;;;;;;;;;;;;-145.50;100.00;65435.88;5020001;28;19940;-63
2022/09/28 08:23:17;;;;;;;;;;;;;;;-145.50;100.00;65435.88;5021635;28;19924;-64
2022/09/28 08:25:47;;;;;;;;;;;;;;;-145.50;100.00;65435.88;5027339;28;19967;-64
2022/09/28 08:28:17;;;;;;;;;;;;;;;-145.50;100.00;65435.88;5012904;28;20424;-64
2022/09/28 08:30:44;;;;;;;;;;;;;;;-145.50;100.00;65435.88;5028840;28;19921;-63
2022/09/28 08:33:16;;;;;;;;;;;;;;;-145.50;100.00;65435.88;5029525;28;19954;-64
2022/09/28 08:35:43;;;;;;;;;;;;;;;-145.50;100.00;65435.88;5020235;28;19921;-64
2022/09/28 08:38:09;;;;;;;;;;;;;;;-145.50;100.00;65435.88;5024267;28;19975;-65
2022/09/28 08:40:51;;;;;;;;;;;;;;;-145.50;100.00;65435.88;5015394;28;19925;-65
2022/09/28 08:43:36;;;;;;;;;;;;;;;-145.50;100.00;65435.88;5024262;28;20015;-65
2022/09/28 08:46:02;;;;;;;;;;;;;;;-145.50;100.00;65435.88;5022554;28;19975;-65
2022/09/28 08:48:43;;;;;;;;;;;;;;;-145.50;100.00;65435.88;5026506;28;19964;-64
2022/09/28 08:51:26;;;;;;;;;;;;;;;-145.50;100.00;65435.88;5011545;28;19925;-63
2022/09/28 08:54:04;;;;;;;;;;;;;;;-145.50;100.00;65435.88;5020133;28;19967;-63
2022/09/28 08:56:41;;;;;;;;;;;;;;;-145.50;100.00;65435.88;5013155;28;19925;-64
2022/09/28 08:59:13;;;;;;;;;;;;;;;-145.50;100.00;65435.88;5018722;28;20435;-65
2022/09/28 09:01:44;;;;;;;;;;;;;;;-145.50;100.00;65435.88;5029232;28;20339;-64
2022/09/28 09:04:11;;;;;;;;;;;;;;;-145.50;100.00;65435.88;5020518;28;20222;-65
2022/09/28 09:06:56;;;;;;;;;;;;;;;-145.50;100.00;65435.88;5025821;28;19925;-65
2022/09/28 09:09:38;;;;;;;;;;;;;;;-145.50;100.00;65435.88;5007935;28;20444;-64
2022/09/28 09:12:36;;;;;;;;;;;;;;;-145.50;100.00;65435.88;5027262;28;19925;-64
2022/09/28 09:15:29;;;;;;;;;;;;;;;-145.50;100.00;65435.88;4981770;28;19975;-65
2022/09/28 09:18:15;;;;;;;;;;;;;;;-145.50;100.00;65435.88;5022864;28;20172;-64
2022/09/28 09:20:48;;;;;;;;;;;;;;;-145.50;100.00;65435.88;5019331;28;20305;-65
2022/09/28 09:23:19;;;;;;;;;;;;;;;-145.50;100.00;65435.88;5020569;28;19925;-64
2022/09/28 09:25:54;;;;;;;;;;;;;;;-145.50;100.00;65435.88;5017168;28;19975;-65
2022/09/28 09:28:37;;;;;;;;;;;;;;;-145.50;100.00;65435.88;5026479;28;20021;-65
2022/09/28 09:31:23;;;;;;;;;;;;;;;-145.50;100.00;65435.88;5013484;28;19991;-65
2022/09/28 09:33:58;;;;;;;;;;;;;;;-145.50;100.00;65435.88;5020324;28;20374;-65
2022/09/28 09:36:43;;;;;;;;;;;;;;;-145.50;100.00;65435.88;5021244;28;19925;-64
2022/09/28 09:39:18;;;;;;;;;;;;;;;-145.50;100.00;65435.88;5021911;28;19925;-65
2022/09/28 09:42:05;;;;;;;;;;;;;;;-145.50;100.00;65435.88;5026995;28;19925;-66
2022/09/28 09:44:32;;;;;;;;;;;;;;;-145.50;100.00;65435.88;4977821;28;19971;-65
2022/09/28 09:47:06;;;;;;;;;;;;;;;-145.50;100.00;65435.88;5023745;28;20365;-66
2022/09/28 09:49:35;;;;;;;;;;;;;;;-145.50;100.00;65435.88;5008687;28;20373;-66
2022/09/28 09:52:04;;;;;;;;;;;;;;;-145.50;100.00;65435.88;5021467;28;19925;-67
2022/09/28 09:54:34;;;;;;;;;;;;;;;-145.50;100.00;65435.88;5011286;28;19925;-66
2022/09/28 09:57:05;;;;;;;;;;;;;;;-145.50;100.00;65435.88;5017400;28;19921;-67
2022/09/28 09:59:33;;;;;;;;;;;;;;;-145.50;100.00;65435.88;5018974;28;19936;-66
2022/09/28 10:02:01;;;;;;;;;;;;;;;-145.50;100.00;65435.88;5027569;28;19921;-66
2022/09/28 10:04:36;;;;;;;;;;;;;;;-145.50;100.00;65435.88;5021868;28;20332;-66
2022/09/28 10:07:04;;;;;;;;;;;;;;;-145.50;100.00;65435.88;5012343;28;19921;-66
2022/09/28 10:09:33;;;;;;;;;;;;;;;-145.50;100.00;65435.88;5019386;28;19975;-66
2022/09/28 10:12:00;;;;;;;;;;;;;;;-145.50;100.00;65435.88;5016823;28;19921;-66
2022/09/28 10:14:27;;;;;;;;;;;;;;;-145.50;100.00;65435.88;5023908;28;19929;-66
2022/09/28 10:16:55;;;;;;;;;;;;;;;-145.50;100.00;65435.88;5017244;28;20444;-66
2022/09/28 10:19:32;;;;;;;;;;;;;;;-145.50;100.00;65435.88;5014379;28;19925;-67
2022/09/28 10:22:01;;;;;;;;;;;;;;;-145.50;100.00;65435.88;5026889;28;20431;-65
2022/09/28 10:24:33;;;;;;;;;;;;;;;-145.50;100.00;65435.88;5020087;28;19979;-66
2022/09/28 10:27:04;;;;;;;;;;;;;;;-145.50;100.00;65435.88;5023076;28;19983;-66
2022/09/28 10:29:37;;;;;;;;;;;;;;;-145.50;100.00;65435.88;5013430;28;20767;-67
2022/09/28 10:32:16;;;;;;;;;;;;;;;-145.50;100.00;65435.88;5012808;28;20274;-67
2022/09/28 10:34:42;;;;;;;;;;;;;;;-145.50;100.00;65435.88;5015477;28;20325;-66
2022/09/28 10:37:15;;;;;;;;;;;;;;;-145.50;100.00;65435.88;5024096;28;20007;-66
2022/09/28 10:39:52;;;;;;;;;;;;;;;-145.50;100.00;65435.88;5021553;28;20062;-66
2022/09/28 10:42:21;;;;;;;;;;;;;;;-145.50;100.00;65435.88;5024756;28;19921;-65
2022/09/28 10:44:50;;;;;;;;;;;;;;;-145.50;100.00;65435.88;5017530;28;19929;-65
2022/09/28 10:47:18;;;;;;;;;;;;;;;-145.50;100.00;65435.88;5010460;28;19932;-65
2022/09/28 10:49:47;;;;;;;;;;;;;;;-145.50;100.00;65435.88;5024445;28;19975;-66
2022/09/28 10:52:33;;;;;;;;;;;;;;;-145.50;100.00;65435.88;5021565;28;20460;-65
2022/09/28 10:55:00;;;;;;;;;;;;;;;-145.50;100.00;65435.88;5025354;28;19921;-66
2022/09/28 10:57:35;;;;;;;;;;;;;;;-145.50;100.00;65435.88;5011488;28;19925;-66
2022/09/28 11:00:06;;;;;;;;;;;;;;;-145.50;100.00;65435.88;5021815;28;20374;-66
2022/09/28 11:02:38;;;;;;;;;;;;;;;-145.50;100.00;65435.88;5015355;28;20596;-66
2022/09/28 11:05:05;;;;;;;;;;;;;;;-145.50;100.00;65435.88;5025015;28;19922;-66
2022/09/28 11:07:33;;;;;;;;;;;;;;;-145.50;100.00;65435.88;5024817;28;20373;-66
2022/09/28 11:10:00;;;;;;;;;;;;;;;-145.50;100.00;65435.88;5016651;28;20369;-66
2022/09/28 11:12:31;;;;;;;;;;;;;;;-145.50;100.00;65435.88;5015286;28;20162;-67
2022/09/28 11:14:59;;;;;;;;;;;;;;;-145.50;100.00;65435.88;4999989;28;20176;-66
2022/09/28 11:17:31;;;;;;;;;;;;;;;-145.50;100.00;65435.88;5020448;28;19925;-66
2022/09/28 11:19:59;;;;;;;;;;;;;;;-145.50;100.00;65435.88;5019775;28;19935;-66
2022/09/28 11:22:28;;;;;;;;;;;;;;;-145.50;100.00;65435.88;5029662;28;19929;-66
2022/09/28 11:25:14;;;;;;;;;;;;;;;-145.50;100.00;65435.88;5030069;28;19924;-66
2022/09/28 11:27:41;;;;;;;;;;;;;;;-145.50;100.00;65435.88;5017754;28;19991;-66
2022/09/28 11:30:20;;;;;;;;;;;;;;;-145.50;100.00;65435.88;5013084;28;20282;-66
2022/09/28 11:32:46;;;;;;;;;;;;;;;-145.50;100.00;65435.88;5007877;28;19921;-65
2022/09/28 11:35:24;;;;;;;;;;;;;;;-145.50;100.00;65435.88;5030107;28;19955;-65
2022/09/28 11:37:58;;;;;;;;;;;;;;;-145.50;100.00;65435.88;5022788;28;19928;-66
2022/09/28 11:40:24;;;;;;;;;;;;;;;-145.50;100.00;65435.88;5028424;28;20471;-66
2022/09/28 11:42:57;;;;;;;;;;;;;;;-145.50;100.00;65435.88;5017840;28;19921;-66
2022/09/28 11:45:42;;;;;;;;;;;;;;;-145.50;100.00;65435.88;5028078;28;19959;-66
2022/09/28 11:48:12;;;;;;;;;;;;;;;-145.50;100.00;65435.88;5017467;28;20258;-66
2022/09/28 11:50:46;;;;;;;;;;;;;;;-145.50;100.00;65435.88;5021616;28;19928;-65
2022/09/28 11:53:17;;;;;;;;;;;;;;;-145.50;100.00;65435.88;5022914;28;19983;-66
2022/09/28 11:56:04;;;;;;;;;;;;;;;-145.50;100.00;65435.88;5015171;28;20004;-66
2022/09/28 11:58:39;;;;;;;;;;;;;;;-145.50;100.00;65435.88;5017092;28;19925;-65
2022/09/28 12:01:05;;;;;;;;;;;;;;;-145.50;100.00;65435.88;5029105;28;19948;-65
2022/09/28 12:03:39;;;;;;;;;;;;;;;-145.50;100.00;65435.88;5027575;28;19925;-66
2022/09/28 12:06:10;;;;;;;;;;;;;;;-145.50;100.00;65435.88;5017298;28;20282;-64
2022/09/28 12:08:41;;;;;;;;;;;;;;;-145.50;100.00;65435.88;5022439;28;19932;-64
2022/09/28 12:11:11;;;;;;;;;;;;;;;-145.50;100.00;65435.88;5017347;28;19925;-65
2022/09/28 12:13:39;;;;;;;;;;;;;;;-145.50;100.00;65435.88;5025581;28;19939;-64
2022/09/28 12:16:07;;;;;;;;;;;;;;;-145.50;100.00;65435.88;5019149;28;20010;-65
2022/09/28 12:18:56;;;;;;;;;;;;;;;-145.50;100.00;65435.88;5013221;28;19999;-63
2022/09/28 12:21:23;;;;;;;;;;;;;;;-145.50;100.00;65435.88;5018449;28;19925;-64
2022/09/28 12:23:52;;;;;;;;;;;;;;;-145.50;100.00;65435.88;5010352;28;19944;-64
2022/09/28 12:26:18;;;;;;;;;;;;;;;-145.50;100.00;65435.88;5020713;28;19925;-64
2022/09/28 12:28:47;;;;;;;;;;;;;;;-145.50;100.00;65435.88;5023851;28;20576;-64
2022/09/28 12:31:16;;;;;;;;;;;;;;;-145.50;100.00;65435.88;5020355;28;21250;-65
2022/09/28 12:33:45;;;;;;;;;;;;;;;-145.50;100.00;65435.88;5023756;28;20376;-64
2022/09/28 12:36:20;;;;;;;;;;;;;;;-145.50;100.00;65435.88;5015319;28;19925;-65
2022/09/28 12:38:46;;;;;;;;;;;;;;;-145.50;100.00;65435.88;5018461;28;20302;-65
2022/09/28 12:41:39;;;;;;;;;;;;;;;-145.50;100.00;65435.88;5014284;28;20296;-64
2022/09/28 12:44:05;;;;;;;;;;;;;;;-145.50;100.00;65435.88;5027915;28;19921;-65